Time;durP1;ratioP1;P1;durP2;ratioP2;P2;SDS_P1;SDS_P2;PMS_P1;PMS_P2;Temp;Humidity;BMP_temperature;BMP_pressure;BME280_temperature;BME280_humidity;BME280_pressure;Samples;Min_cycle;Max_cycle;Signal;HPM_P1;HPM_P2
2021/04/12 00:02:41;;;;;;;0.40;0.40;;;3.10;99.90;;;;;;5056121;28;20180;-84
2021/04/12 00:05:13;;;;;;;1.53;1.43;;;3.00;99.90;;;;;;5033017;28;20217;-83
2021/04/12 00:08:09;;;;;;;0.20;0.20;;;3.00;99.90;;;;;;5056550;28;20246;-81
2021/04/12 00:11:00;;;;;;;0.50;0.50;;;3.10;99.90;;;;;;5052213;28;20247;-82
2021/04/12 00:13:53;;;;;;;0.60;0.60;;;3.10;99.90;;;;;;5067409;28;20228;-81
2021/04/12 00:16:47;;;;;;;0.60;0.60;;;3.20;99.90;;;;;;5069230;28;20217;-83
2021/04/12 00:19:47;;;;;;;0.30;0.30;;;3.10;99.90;;;;;;5050977;28;20252;-81
2021/04/12 00:22:32;;;;;;;0.47;0.47;;;3.20;99.90;;;;;;5048906;28;20224;-83
2021/04/12 00:25:05;;;;;;;0.30;0.30;;;3.10;99.90;;;;;;5069660;28;20201;-82
2021/04/12 00:28:06;;;;;;;0.40;0.40;;;3.00;99.90;;;;;;5051883;28;20281;-83
2021/04/12 00:31:17;;;;;;;2.33;1.03;;;2.90;99.90;;;;;;5048325;28;20357;-83
2021/04/12 00:34:01;;;;;;;0.40;0.40;;;2.90;99.90;;;;;;4973810;28;20719;-84
2021/04/12 00:36:45;;;;;;;0.70;0.70;;;2.80;99.90;;;;;;5042569;28;20225;-84
2021/04/12 00:39:18;;;;;;;0.30;0.30;;;2.70;99.90;;;;;;5045980;28;20216;-81
2021/04/12 00:42:00;;;;;;;0.47;0.47;;;2.70;99.90;;;;;;5067469;28;20240;-82
2021/04/12 00:45:00;;;;;;;2.00;0.93;;;2.70;99.90;;;;;;5065715;28;20235;-83
2021/04/12 00:47:50;;;;;;;0.97;0.87;;;2.80;99.90;;;;;;5037006;28;20193;-80
2021/04/12 00:50:53;;;;;;;0.40;0.40;;;2.80;99.90;;;;;;5053167;28;20182;-83
2021/04/12 00:53:51;;;;;;;0.77;0.40;;;2.80;99.90;;;;;;4971637;28;20223;-80
2021/04/12 00:56:26;;;;;;;0.30;0.30;;;2.90;99.90;;;;;;5067028;28;20185;-82
2021/04/12 00:59:10;;;;;;;0.40;0.40;;;2.90;99.90;;;;;;5055038;28;20184;-80
2021/04/12 01:01:55;;;;;;;0.30;0.30;;;2.90;99.90;;;;;;5057428;28;20212;-83
2021/04/12 01:04:33;;;;;;;0.43;0.43;;;3.00;99.90;;;;;;5056775;28;20211;-84
2021/04/12 01:07:26;;;;;;;0.43;0.43;;;3.00;99.90;;;;;;5056406;28;20221;-81
2021/04/12 01:10:13;;;;;;;0.30;0.30;;;3.00;99.90;;;;;;5075496;28;20216;-81
2021/04/12 01:13:07;;;;;;;0.30;0.30;;;2.90;99.90;;;;;;5074685;28;20212;-81
2021/04/12 01:15:35;;;;;;;0.80;0.80;;;2.90;99.90;;;;;;5055006;28;20315;-81
2021/04/12 01:18:22;;;;;;;0.73;0.73;;;2.90;99.90;;;;;;5071083;28;20229;-83
2021/04/12 01:21:15;;;;;;;4.77;2.67;;;2.90;99.90;;;;;;5048356;28;20237;-82
2021/04/12 01:23:56;;;;;;;0.30;0.30;;;3.00;99.90;;;;;;5051812;28;20242;-83
2021/04/12 01:26:34;;;;;;;0.30;0.30;;;3.00;99.90;;;;;;5071851;28;20193;-82
2021/04/12 01:29:18;;;;;;;0.30;0.30;;;3.00;99.90;;;;;;5055692;28;20207;-81
2021/04/12 01:32:22;;;;;;;0.53;0.40;;;3.00;99.90;;;;;;5054538;28;20213;-81
2021/04/12 01:35:30;;;;;;;0.30;0.30;;;3.00;99.90;;;;;;5060625;28;20803;-84
2021/04/12 01:38:21;;;;;;;0.30;0.30;;;3.00;99.90;;;;;;5073317;28;20231;-84
2021/04/12 01:41:08;;;;;;;0.40;0.40;;;3.00;99.90;;;;;;5070748;28;20228;-81
2021/04/12 01:43:52;;;;;;;0.50;0.50;;;3.00;99.90;;;;;;5055479;28;20862;-82
2021/04/12 01:46:19;;;;;;;0.97;0.40;;;3.00;99.90;;;;;;5073162;28;20275;-81
2021/04/12 01:48:58;;;;;;;5.10;0.63;;;3.10;99.90;;;;;;5054592;28;20213;-80
2021/04/12 01:51:49;;;;;;;0.50;0.50;;;3.10;99.90;;;;;;5055083;28;20737;-81
2021/04/12 01:54:34;;;;;;;0.30;0.30;;;3.10;99.90;;;;;;5049516;28;21256;-80
2021/04/12 01:57:09;;;;;;;0.40;0.40;;;3.00;99.90;;;;;;5052968;28;20220;-81
2021/04/12 02:00:25;;;;;;;0.30;0.30;;;3.00;99.90;;;;;;5055797;28;20247;-81
2021/04/12 02:03:11;;;;;;;0.40;0.40;;;3.10;99.90;;;;;;5025463;28;20724;-81
2021/04/12 02:06:06;;;;;;;0.30;0.30;;;3.00;99.90;;;;;;5071097;28;20217;-80
2021/04/12 02:08:46;;;;;;;0.30;0.30;;;3.00;99.90;;;;;;5053686;28;20246;-81
2021/04/12 02:11:33;;;;;;;0.50;0.50;;;3.00;99.90;;;;;;5053653;28;20244;-81
2021/04/12 02:14:13;;;;;;;0.40;0.40;;;2.90;99.90;;;;;;5053945;28;20212;-83
2021/04/12 02:16:44;;;;;;;0.70;0.70;;;2.90;99.90;;;;;;5053234;28;20388;-81
2021/04/12 02:19:49;;;;;;;0.50;0.50;;;2.90;99.90;;;;;;5071316;28;20622;-81
2021/04/12 02:22:44;;;;;;;0.30;0.30;;;2.90;99.90;;;;;;5066905;28;20216;-82
2021/04/12 02:25:15;;;;;;;0.50;0.50;;;2.90;99.90;;;;;;4985736;28;20228;-81
2021/04/12 02:27:59;;;;;;;0.47;0.47;;;3.00;99.90;;;;;;5055099;28;20216;-81
2021/04/12 02:30:44;;;;;;;0.30;0.30;;;3.00;99.90;;;;;;5073750;28;20237;-80
2021/04/12 02:33:15;;;;;;;0.40;0.40;;;3.00;99.90;;;;;;5054240;28;20221;-80
2021/04/12 02:36:05;;;;;;;0.33;0.33;;;3.00;99.90;;;;;;5053650;28;20264;-82
2021/04/12 02:38:57;;;;;;;0.30;0.30;;;3.00;99.90;;;;;;5051324;28;20217;-82
2021/04/12 02:41:41;;;;;;;0.33;0.33;;;3.00;99.90;;;;;;5053147;28;20182;-84
2021/04/12 02:44:13;;;;;;;0.30;0.30;;;3.20;99.90;;;;;;5052687;28;20716;-80
2021/04/12 02:46:49;;;;;;;0.50;0.50;;;3.30;99.90;;;;;;5071391;28;20185;-80
2021/04/12 02:49:35;;;;;;;0.30;0.30;;;3.40;99.90;;;;;;5052759;28;20205;-83
2021/04/12 02:52:11;;;;;;;1.03;0.70;;;3.40;99.90;;;;;;5053517;28;20213;-81
2021/04/12 02:54:55;;;;;;;0.30;0.30;;;3.30;99.90;;;;;;5066087;28;20226;-81
2021/04/12 02:57:55;;;;;;;0.30;0.30;;;3.30;99.90;;;;;;5070759;28;20223;-81
2021/04/12 03:00:41;;;;;;;0.33;0.33;;;3.20;99.90;;;;;;5070747;28;20325;-82
2021/04/12 03:03:26;;;;;;;0.30;0.30;;;3.10;99.90;;;;;;5052881;28;20217;-81
2021/04/12 03:06:25;;;;;;;0.30;0.30;;;3.00;99.90;;;;;;5051923;28;20213;-81
2021/04/12 03:09:21;;;;;;;0.40;0.40;;;3.00;99.90;;;;;;5067268;28;20208;-83
2021/04/12 03:11:56;;;;;;;0.40;0.40;;;2.90;99.90;;;;;;5052572;28;20332;-82
2021/04/12 03:14:50;;;;;;;0.87;0.87;;;2.90;99.90;;;;;;5072271;28;20231;-81
2021/04/12 03:17:35;;;;;;;0.30;0.30;;;2.90;99.90;;;;;;5053992;28;20192;-82
2021/04/12 03:20:46;;;;;;;0.37;0.37;;;2.80;99.90;;;;;;5072761;28;20693;-82
2021/04/12 03:23:49;;;;;;;0.50;0.50;;;2.90;99.90;;;;;;5062088;28;20224;-81
2021/04/12 03:26:26;;;;;;;0.40;0.40;;;2.80;99.90;;;;;;5052314;28;20238;-83
2021/04/12 03:29:00;;;;;;;0.40;0.40;;;2.80;99.90;;;;;;5073349;28;20181;-81
2021/04/12 03:31:50;;;;;;;0.40;0.40;;;2.80;99.90;;;;;;5051124;28;20217;-80
2021/04/12 03:34:29;;;;;;;6.27;0.70;;;2.70;99.90;;;;;;5051726;28;20216;-81
2021/04/12 03:37:24;;;;;;;0.40;0.40;;;2.70;99.90;;;;;;5053414;28;20224;-82
2021/04/12 03:40:02;;;;;;;0.70;0.70;;;2.70;99.90;;;;;;5066910;28;20212;-81
2021/04/12 03:42:55;;;;;;;0.43;0.43;;;2.80;99.90;;;;;;5045646;28;20216;-84
2021/04/12 03:45:29;;;;;;;0.30;0.30;;;2.80;99.90;;;;;;5047505;28;20225;-83
2021/04/12 03:48:28;;;;;;;0.50;0.50;;;2.80;99.90;;;;;;5052349;28;20719;-83
2021/04/12 03:51:32;;;;;;;0.43;0.43;;;2.80;99.90;;;;;;5069394;28;20223;-82
2021/04/12 03:54:16;;;;;;;0.90;0.90;;;2.80;99.90;;;;;;5065430;28;20232;-84
2021/04/12 03:57:09;;;;;;;2.60;0.80;;;2.80;99.90;;;;;;5048628;28;20293;-83
2021/04/12 04:00:03;;;;;;;1.00;1.00;;;2.80;99.90;;;;;;5052179;28;20220;-82
2021/04/12 04:02:48;;;;;;;0.63;0.63;;;2.70;99.90;;;;;;5052171;28;20565;-81
2021/04/12 04:05:41;;;;;;;1.33;1.23;;;2.60;99.90;;;;;;5071118;28;20480;-81
2021/04/12 04:08:42;;;;;;;0.50;0.50;;;2.50;99.90;;;;;;5069485;28;20647;-82
2021/04/12 04:11:20;;;;;;;0.30;0.30;;;2.40;99.90;;;;;;5047485;28;20189;-83
2021/04/12 04:14:01;;;;;;;0.30;0.30;;;2.40;99.90;;;;;;5053354;28;20209;-83
2021/04/12 04:16:51;;;;;;;0.57;0.57;;;2.50;99.90;;;;;;5069831;28;21034;-85
2021/04/12 04:19:48;;;;;;;0.70;0.70;;;2.50;99.90;;;;;;5052336;28;20247;-82
2021/04/12 04:22:45;;;;;;;1.80;1.07;;;2.50;99.90;;;;;;5053139;28;20362;-82
2021/04/12 04:25:38;;;;;;;0.60;0.60;;;2.50;99.90;;;;;;5051621;28;20213;-82
2021/04/12 04:28:35;;;;;;;1.50;1.07;;;2.30;99.90;;;;;;5055863;28;20211;-82
2021/04/12 04:31:11;;;;;;;0.50;0.50;;;2.30;99.90;;;;;;5073304;28;20215;-82
2021/04/12 04:34:14;;;;;;;20.23;1.10;;;2.30;99.90;;;;;;5055955;28;20243;-83
2021/04/12 04:37:21;;;;;;;0.50;0.50;;;2.30;99.90;;;;;;5055348;28;20220;-83
2021/04/12 04:40:13;;;;;;;5.70;1.73;;;2.30;99.90;;;;;;5057247;28;20228;-83
2021/04/12 04:43:01;;;;;;;2.90;2.73;;;2.20;99.90;;;;;;5044152;28;20248;-83
2021/04/12 04:45:31;;;;;;;1.33;1.33;;;2.20;99.90;;;;;;5053890;28;20232;-82
2021/04/12 04:48:26;;;;;;;1.00;1.00;;;2.10;99.90;;;;;;5054615;28;20292;-83
2021/04/12 04:51:06;;;;;;;5.60;1.67;;;2.10;99.90;;;;;;5044046;28;20647;-83
2021/04/12 04:54:04;;;;;;;1.63;1.30;;;2.10;99.90;;;;;;5048305;28;20217;-81
2021/04/12 04:56:57;;;;;;;1.40;1.30;;;2.10;99.90;;;;;;5071231;28;20312;-83
2021/04/12 04:59:42;;;;;;;4.43;1.13;;;2.10;99.90;;;;;;5072741;28;20536;-83
2021/04/12 05:02:46;;;;;;;1.90;1.40;;;2.10;99.90;;;;;;5067678;28;20173;-84
2021/04/12 05:05:33;;;;;;;0.40;0.40;;;2.10;99.90;;;;;;4999343;28;20293;-82
2021/04/12 05:08:24;;;;;;;0.50;0.50;;;2.20;99.90;;;;;;5051155;28;20220;-83
2021/04/12 05:11:17;;;;;;;0.30;0.30;;;2.40;99.90;;;;;;5049190;28;20226;-83
2021/04/12 05:14:11;;;;;;;0.77;0.63;;;2.50;99.90;;;;;;5070885;28;20250;-83
2021/04/12 05:16:40;;;;;;;0.70;0.70;;;2.60;99.90;;;;;;5054784;28;20216;-82
2021/04/12 05:19:40;;;;;;;0.50;0.50;;;3.10;99.90;;;;;;5071168;28;20221;-81
2021/04/12 05:22:43;;;;;;;0.30;0.30;;;4.00;99.90;;;;;;5074185;28;20213;-82
2021/04/12 05:25:09;;;;;;;1.70;0.63;;;4.80;99.90;;;;;;5072089;28;20236;-82
2021/04/12 05:28:08;;;;;;;0.80;0.80;;;5.50;99.90;;;;;;5071308;28;20213;-82
2021/04/12 05:30:38;;;;;;;2.10;1.10;;;6.00;99.90;;;;;;5055506;28;20216;-81
2021/04/12 05:33:38;;;;;;;6.50;1.30;;;5.80;99.90;;;;;;5052693;28;20248;-82
2021/04/12 05:36:42;;;;;;;0.50;0.50;;;6.20;99.90;;;;;;5051810;28;20217;-82
2021/04/12 05:39:33;;;;;;;0.30;0.30;;;7.00;99.90;;;;;;5052991;28;20219;-82
2021/04/12 05:42:16;;;;;;;1.97;0.93;;;8.10;99.90;;;;;;5047823;28;20225;-81
2021/04/12 05:45:06;;;;;;;7.13;2.07;;;8.70;99.90;;;;;;5069365;28;20228;-82
2021/04/12 05:48:10;;;;;;;1.57;1.13;;;9.40;99.90;;;;;;5053194;28;20221;-81
2021/04/12 05:50:41;;;;;;;5.77;1.20;;;10.20;99.90;;;;;;5072941;28;20221;-83
2021/04/12 05:53:40;;;;;;;0.80;0.80;;;11.50;99.90;;;;;;5067810;28;20181;-81
2021/04/12 05:56:15;;;;;;;1.50;0.87;;;12.80;99.90;;;;;;5071181;28;20197;-82
2021/04/12 05:59:12;;;;;;;3.27;1.33;;;14.50;99.90;;;;;;5065054;28;20288;-82
2021/04/12 06:02:22;;;;;;;0.30;0.30;;;14.80;99.90;;;;;;5054174;28;20246;-82
2021/04/12 06:05:01;;;;;;;0.60;0.60;;;11.20;99.90;;;;;;5068752;28;20232;-83
2021/04/12 06:07:49;;;;;;;0.30;0.30;;;8.10;99.90;;;;;;5051982;28;20220;-83
2021/04/12 06:10:35;;;;;;;0.47;0.47;;;5.60;99.90;;;;;;5055414;28;21239;-82
2021/04/12 06:13:28;;;;;;;0.30;0.30;;;5.10;99.90;;;;;;5054800;28;20217;-82
2021/04/12 06:16:33;;;;;;;0.93;0.50;;;6.60;99.90;;;;;;5052368;28;20235;-82
2021/04/12 06:19:20;;;;;;;0.40;0.40;;;7.00;99.90;;;;;;5052868;28;21018;-82
2021/04/12 06:21:46;;;;;;;0.20;0.20;;;6.70;99.90;;;;;;5053568;28;20581;-83
2021/04/12 06:24:24;;;;;;;0.30;0.30;;;5.50;99.90;;;;;;5054000;28;20217;-82
2021/04/12 06:27:19;;;;;;;0.40;0.40;;;5.00;99.90;;;;;;5054661;28;20227;-82
2021/04/12 06:30:13;;;;;;;0.43;0.43;;;5.10;99.90;;;;;;5052976;28;20221;-81
2021/04/12 06:32:57;;;;;;;0.40;0.40;;;5.30;99.90;;;;;;5069974;28;20243;-82
2021/04/12 06:35:40;;;;;;;11.53;0.50;;;5.60;99.90;;;;;;5049777;28;20220;-81
2021/04/12 06:38:24;;;;;;;0.60;0.60;;;5.70;99.90;;;;;;5054062;28;20181;-82
2021/04/12 06:41:03;;;;;;;0.87;0.77;;;5.90;99.90;;;;;;5068304;28;20227;-83
2021/04/12 06:43:29;;;;;;;0.40;0.40;;;6.70;99.90;;;;;;5044580;28;20228;-82
2021/04/12 06:46:20;;;;;;;0.30;0.30;;;8.50;99.90;;;;;;5052255;28;20213;-81
2021/04/12 06:49:15;;;;;;;0.30;0.30;;;11.00;99.90;;;;;;5051124;28;20212;-82
2021/04/12 06:52:06;;;;;;;1.27;1.27;;;12.00;99.90;;;;;;5052008;28;20216;-81
2021/04/12 06:55:04;;;;;;;1.23;0.73;;;13.90;99.90;;;;;;5026328;28;20228;-81
2021/04/12 06:58:00;;;;;;;0.53;0.53;;;13.70;99.90;;;;;;5051606;28;20228;-82
2021/04/12 07:00:44;;;;;;;0.53;0.53;;;13.90;99.90;;;;;;5052937;28;20231;-81
2021/04/12 07:03:32;;;;;;;1.10;0.60;;;14.70;99.90;;;;;;5053685;28;20232;-83
2021/04/12 07:06:22;;;;;;;3.20;0.70;;;14.70;99.90;;;;;;5052455;28;20331;-83
2021/04/12 07:08:57;;;;;;;0.40;0.40;;;13.50;99.90;;;;;;5050469;28;20221;-83
2021/04/12 07:11:56;;;;;;;0.20;0.20;;;10.50;99.90;;;;;;5052754;28;20194;-82
2021/04/12 07:14:46;;;;;;;0.17;0.17;;;8.80;99.90;;;;;;5051062;28;20289;-82
2021/04/12 07:17:34;;;;;;;0.83;0.83;;;8.10;99.90;;;;;;5049015;28;20536;-84
2021/04/12 07:20:18;;;;;;;0.30;0.30;;;7.10;99.90;;;;;;5067808;28;20240;-81
2021/04/12 07:23:18;;;;;;;0.30;0.30;;;6.80;99.90;;;;;;5069924;28;20240;-80
2021/04/12 07:26:05;;;;;;;0.30;0.30;;;8.50;99.90;;;;;;5050746;28;21479;-82
2021/04/12 07:28:55;;;;;;;1.03;0.90;;;9.10;99.90;;;;;;5050627;28;20636;-81
2021/04/12 07:31:45;;;;;;;3.30;0.80;;;9.70;99.90;;;;;;5069240;28;20220;-82
2021/04/12 07:34:38;;;;;;;0.30;0.30;;;9.90;99.90;;;;;;5050548;28;20274;-83
2021/04/12 07:37:29;;;;;;;0.23;0.23;;;11.20;99.90;;;;;;5049546;28;20342;-80
2021/04/12 07:40:12;;;;;;;2.83;0.60;;;11.80;99.90;;;;;;5065868;28;20205;-81
2021/04/12 07:43:13;;;;;;;0.40;0.40;;;12.70;99.90;;;;;;5048114;28;20335;-82
2021/04/12 07:45:42;;;;;;;0.53;0.53;;;11.80;99.90;;;;;;5049026;28;20224;-82
2021/04/12 07:48:36;;;;;;;1.50;0.67;;;11.90;99.90;;;;;;5049809;28;20246;-83
2021/04/12 07:51:20;;;;;;;0.50;0.50;;;12.30;99.90;;;;;;5048935;28;20377;-83
2021/04/12 07:54:24;;;;;;;1.80;0.50;;;11.30;99.90;;;;;;5051311;28;20212;-84
2021/04/12 07:56:58;;;;;;;0.27;0.27;;;11.60;99.90;;;;;;5068928;28;20243;-82
2021/04/12 07:59:27;;;;;;;0.30;0.30;;;11.80;99.90;;;;;;5050040;28;20184;-81
2021/04/12 08:02:11;;;;;;;0.20;0.20;;;11.20;99.90;;;;;;5053209;28;20186;-83
2021/04/12 08:05:15;;;;;;;0.97;0.80;;;10.40;99.90;;;;;;5068113;28;20221;-84
2021/04/12 08:08:02;;;;;;;0.30;0.30;;;9.30;99.90;;;;;;5069622;28;20295;-84
2021/04/12 08:11:06;;;;;;;0.30;0.30;;;9.80;99.90;;;;;;5054468;28;20227;-81
2021/04/12 08:13:53;;;;;;;3.30;0.50;;;9.40;99.90;;;;;;5052814;28;20215;-80
2021/04/12 08:16:37;;;;;;;0.50;0.50;;;10.40;99.90;;;;;;5068409;28;20244;-81
2021/04/12 08:19:03;;;;;;;0.30;0.30;;;10.60;99.90;;;;;;5049796;28;20212;-81
2021/04/12 08:21:59;;;;;;;0.50;0.50;;;10.80;99.90;;;;;;5048340;28;20746;-82
2021/04/12 08:24:53;;;;;;;1.10;0.60;;;11.20;99.90;;;;;;5048882;28;20271;-84
2021/04/12 08:27:42;;;;;;;0.57;0.57;;;11.60;99.90;;;;;;5045470;28;20212;-81
2021/04/12 08:30:46;;;;;;;1.97;1.20;;;11.30;99.90;;;;;;5049415;28;20212;-81
2021/04/12 08:33:31;;;;;;;0.20;0.20;;;11.60;99.90;;;;;;5065107;28;20216;-83
2021/04/12 08:36:22;;;;;;;0.40;0.40;;;11.30;99.90;;;;;;5050191;28;20309;-81
2021/04/12 08:39:11;;;;;;;0.20;0.20;;;10.30;99.90;;;;;;5048741;28;20213;-81
2021/04/12 08:42:06;;;;;;;1.20;0.30;;;8.20;99.90;;;;;;5050753;28;20215;-84
2021/04/12 08:44:44;;;;;;;0.10;0.10;;;6.80;99.90;;;;;;5049728;28;20748;-82
2021/04/12 08:47:23;;;;;;;0.50;0.50;;;6.20;99.90;;;;;;5049427;28;20180;-83
2021/04/12 08:50:15;;;;;;;0.10;0.10;;;7.30;99.90;;;;;;5034374;28;20199;-82
2021/04/12 08:53:02;;;;;;;0.40;0.40;;;9.60;99.90;;;;;;5050484;28;20561;-81
2021/04/12 08:55:36;;;;;;;0.30;0.30;;;10.80;99.90;;;;;;5063534;28;20229;-81
2021/04/12 08:58:17;;;;;;;0.20;0.20;;;11.00;99.90;;;;;;5068126;28;20215;-81
2021/04/12 09:01:29;;;;;;;0.33;0.33;;;8.70;99.90;;;;;;5049214;28;20220;-81
2021/04/12 09:04:13;;;;;;;3.27;0.80;;;6.90;99.90;;;;;;5066963;28;20229;-81
2021/04/12 09:07:15;;;;;;;0.37;0.37;;;6.40;99.90;;;;;;5067494;28;20228;-81
2021/04/12 09:10:19;;;;;;;0.53;0.53;;;8.80;99.90;;;;;;5050113;28;20542;-81
2021/04/12 09:12:47;;;;;;;0.77;0.70;;;11.80;99.90;;;;;;5049759;28;20285;-80
2021/04/12 09:15:51;;;;;;;0.20;0.20;;;12.70;99.90;;;;;;5070190;28;20233;-81
2021/04/12 09:18:48;;;;;;;1.90;1.03;;;12.50;99.90;;;;;;5053710;28;20225;-83
2021/04/12 09:21:29;;;;;;;0.30;0.30;;;10.70;99.90;;;;;;5071624;28;20247;-83
2021/04/12 09:24:34;;;;;;;1.70;0.30;;;10.20;99.90;;;;;;5072893;28;20645;-84
2021/04/12 09:27:27;;;;;;;0.63;0.53;;;9.50;99.90;;;;;;5065642;28;20771;-84
2021/04/12 09:30:31;;;;;;;0.20;0.20;;;9.90;99.90;;;;;;5049690;28;20274;-81
2021/04/12 09:33:09;;;;;;;0.30;0.30;;;10.10;99.90;;;;;;5033735;28;20224;-84
2021/04/12 09:36:07;;;;;;;0.30;0.30;;;9.60;99.90;;;;;;5069944;28;20747;-82
2021/04/12 09:38:57;;;;;;;0.20;0.20;;;7.90;99.90;;;;;;5055048;28;20225;-81
2021/04/12 09:41:47;;;;;;;2.10;0.40;;;7.50;99.90;;;;;;5052669;28;21092;-81
2021/04/12 09:44:34;;;;;;;0.63;0.63;;;9.30;99.90;;;;;;5050318;28;20200;-82
2021/04/12 09:47:45;;;;;;;0.40;0.40;;;9.80;99.90;;;;;;5068261;28;20193;-82
2021/04/12 09:50:25;;;;;;;0.40;0.40;;;9.80;99.90;;;;;;5047712;28;20230;-83
2021/04/12 09:53:17;;;;;;;0.97;0.87;;;10.20;99.90;;;;;;5054631;28;20700;-82
2021/04/12 09:56:04;;;;;;;0.40;0.40;;;9.90;99.90;;;;;;5066626;28;20255;-81
2021/04/12 09:58:51;;;;;;;0.87;0.87;;;10.10;99.90;;;;;;5051244;28;20228;-81
2021/04/12 10:01:43;;;;;;;0.50;0.50;;;9.90;99.90;;;;;;5050756;28;20975;-82
2021/04/12 10:04:30;;;;;;;0.23;0.23;;;9.90;99.90;;;;;;5028210;28;20270;-81
2021/04/12 10:07:13;;;;;;;0.20;0.20;;;9.70;99.90;;;;;;5047441;28;20233;-81
2021/04/12 10:10:06;;;;;;;0.60;0.60;;;10.20;99.90;;;;;;5068241;28;20217;-83
2021/04/12 10:13:02;;;;;;;0.40;0.40;;;10.70;99.90;;;;;;5069180;28;20224;-82
2021/04/12 10:15:52;;;;;;;0.50;0.50;;;11.40;99.90;;;;;;5052933;28;21289;-82
2021/04/12 10:18:18;;;;;;;0.40;0.40;;;10.90;99.90;;;;;;5068147;28;20329;-82
2021/04/12 10:20:49;;;;;;;1.63;0.43;;;10.30;99.90;;;;;;5051077;28;20637;-84
2021/04/12 10:23:21;;;;;;;1.17;0.60;;;9.70;99.90;;;;;;5050674;28;20189;-82
2021/04/12 10:26:14;;;;;;;0.33;0.33;;;9.20;99.90;;;;;;5070007;28;20185;-82
2021/04/12 10:28:49;;;;;;;0.30;0.30;;;9.10;99.90;;;;;;5050505;28;20221;-83
2021/04/12 10:31:34;;;;;;;0.87;0.53;;;9.20;99.90;;;;;;5048008;28;20751;-81
2021/04/12 10:34:12;;;;;;;0.63;0.63;;;10.30;99.90;;;;;;5068159;28;20322;-82
2021/04/12 10:37:11;;;;;;;0.40;0.20;;;9.80;99.90;;;;;;5066295;28;20299;-82
2021/04/12 10:39:59;;;;;;;0.30;0.30;;;10.10;99.90;;;;;;5051618;28;20232;-83
2021/04/12 10:42:57;;;;;;;0.20;0.20;;;10.30;99.90;;;;;;5072275;28;20290;-81
2021/04/12 10:45:28;;;;;;;0.83;0.80;;;9.40;99.90;;;;;;5054047;28;20221;-82
2021/04/12 10:48:19;;;;;;;27.73;0.73;;;9.00;99.90;;;;;;5054504;28;20779;-82
2021/04/12 10:51:15;;;;;;;0.90;0.23;;;9.40;99.90;;;;;;5044439;28;20221;-83
2021/04/12 10:54:00;;;;;;;2.23;0.50;;;10.20;99.90;;;;;;5057274;28;21028;-83
2021/04/12 10:56:44;;;;;;;0.40;0.40;;;8.60;99.90;;;;;;5066606;28;20242;-83
2021/04/12 10:59:37;;;;;;;0.30;0.30;;;9.40;99.90;;;;;;5048960;28;20181;-83
2021/04/12 11:02:23;;;;;;;0.27;0.27;;;9.90;99.90;;;;;;5052110;28;20194;-83
2021/04/12 11:05:03;;;;;;;0.40;0.40;;;10.40;99.90;;;;;;5051581;28;20232;-83
2021/04/12 11:07:52;;;;;;;0.10;0.10;;;10.20;99.90;;;;;;5063481;28;20235;-84
2021/04/12 11:10:55;;;;;;;3.80;0.60;;;9.00;99.90;;;;;;5068000;28;20217;-82
2021/04/12 11:13:32;;;;;;;3.60;0.50;;;8.00;99.90;;;;;;5050362;28;20278;-80
2021/04/12 11:16:39;;;;;;;0.20;0.20;;;8.30;99.90;;;;;;5042880;28;20737;-84
2021/04/12 11:19:16;;;;;;;0.30;0.30;;;8.50;99.90;;;;;;5028301;28;20217;-82
2021/04/12 11:22:01;;;;;;;0.30;0.30;;;8.90;99.90;;;;;;5048949;28;20256;-81
2021/04/12 11:24:39;;;;;;;0.20;0.20;;;8.70;99.90;;;;;;5050510;28;20607;-83
2021/04/12 11:27:29;;;;;;;0.33;0.33;;;8.70;99.90;;;;;;5053893;28;20225;-82
2021/04/12 11:30:17;;;;;;;0.20;0.20;;;9.30;99.90;;;;;;5052155;28;20223;-82
2021/04/12 11:33:15;;;;;;;0.20;0.20;;;9.70;99.90;;;;;;5050177;28;20242;-81
2021/04/12 11:36:02;;;;;;;6.67;1.23;;;9.30;99.90;;;;;;5051613;28;20240;-81
2021/04/12 11:38:36;;;;;;;2.33;0.40;;;9.30;99.90;;;;;;5052941;28;20224;-84
2021/04/12 11:41:12;;;;;;;0.30;0.30;;;9.00;99.90;;;;;;5070761;28;20173;-84
2021/04/12 11:43:43;;;;;;;0.30;0.30;;;8.90;99.90;;;;;;5069296;28;20227;-82
2021/04/12 11:46:15;;;;;;;0.20;0.20;;;8.70;99.90;;;;;;5067404;28;21312;-82
2021/04/12 11:49:12;;;;;;;0.30;0.30;;;8.20;99.90;;;;;;5051967;28;20224;-83
2021/04/12 11:51:57;;;;;;;0.30;0.30;;;7.60;99.90;;;;;;5046266;28;20213;-82
2021/04/12 11:54:52;;;;;;;0.40;0.40;;;7.90;99.90;;;;;;5044137;28;20233;-80
2021/04/12 11:57:46;;;;;;;0.37;0.37;;;7.80;99.90;;;;;;5063003;28;20368;-79
2021/04/12 12:00:18;;;;;;;0.30;0.30;;;8.20;99.90;;;;;;5063932;28;20221;-82
2021/04/12 12:02:54;;;;;;;0.40;0.40;;;8.20;99.90;;;;;;5065638;28;20227;-81
2021/04/12 12:05:37;;;;;;;0.33;0.33;;;8.70;99.90;;;;;;5066696;28;20258;-82
2021/04/12 12:08:12;;;;;;;3.93;0.53;;;8.50;99.90;;;;;;5052022;28;20220;-82
2021/04/12 12:10:37;;;;;;;0.47;0.47;;;8.60;99.90;;;;;;5045440;28;20215;-81
2021/04/12 12:13:18;;;;;;;0.30;0.30;;;8.70;99.90;;;;;;5047529;28;20228;-81
2021/04/12 12:16:15;;;;;;;0.73;0.30;;;8.90;99.90;;;;;;5047963;28;20512;-80
2021/04/12 12:18:48;;;;;;;0.50;0.50;;;8.40;99.90;;;;;;5047410;28;20489;-82
2021/04/12 12:21:26;;;;;;;0.30;0.30;;;8.40;99.90;;;;;;5042311;28;20234;-81
2021/04/12 12:24:14;;;;;;;0.40;0.30;;;7.90;99.90;;;;;;5043410;28;21032;-81
2021/04/12 12:27:04;;;;;;;0.30;0.30;;;7.90;99.90;;;;;;5044841;28;20217;-81
2021/04/12 12:29:37;;;;;;;0.20;0.20;;;8.40;99.90;;;;;;5044522;28;20756;-80
2021/04/12 12:32:15;;;;;;;0.30;0.30;;;8.40;99.90;;;;;;5044148;28;20182;-81
2021/04/12 12:34:47;;;;;;;0.20;0.20;;;8.40;99.90;;;;;;5043336;28;20233;-82
2021/04/12 12:37:30;;;;;;;0.40;0.40;;;8.70;99.90;;;;;;5045030;28;20228;-81
2021/04/12 12:39:59;;;;;;;0.93;0.70;;;8.60;99.90;;;;;;5040195;28;20308;-81
2021/04/12 12:42:37;;;;;;;0.20;0.20;;;8.60;99.90;;;;;;5045362;28;20658;-82
2021/04/12 12:45:14;;;;;;;1.60;0.40;;;8.60;99.90;;;;;;5041185;28;20726;-82
2021/04/12 12:47:47;;;;;;;0.30;0.30;;;8.70;99.90;;;;;;5046072;28;20213;-81
2021/04/12 12:50:20;;;;;;;0.40;0.40;;;8.20;99.90;;;;;;5048242;28;20598;-81
2021/04/12 12:52:53;;;;;;;0.20;0.20;;;8.10;99.90;;;;;;5048912;28;20185;-81
2021/04/12 12:55:30;;;;;;;1.50;0.43;;;8.40;99.90;;;;;;5044728;28;20234;-82
2021/04/12 12:57:57;;;;;;;0.33;0.33;;;8.70;99.90;;;;;;5047435;28;20731;-83
2021/04/12 13:00:39;;;;;;;0.30;0.30;;;8.80;99.90;;;;;;5030588;28;20249;-85
2021/04/12 13:03:15;;;;;;;0.30;0.30;;;8.20;99.90;;;;;;5050265;28;20217;-84
2021/04/12 13:05:41;;;;;;;0.30;0.30;;;8.20;99.90;;;;;;5049909;28;20229;-81
2021/04/12 13:08:20;;;;;;;0.30;0.30;;;8.40;99.90;;;;;;5049188;28;20223;-83
2021/04/12 13:10:50;;;;;;;0.30;0.30;;;7.50;99.90;;;;;;5046427;28;20705;-82
2021/04/12 13:13:25;;;;;;;1.10;0.53;;;6.80;99.90;;;;;;5028342;28;20260;-80
2021/04/12 13:15:52;;;;;;;0.57;0.57;;;6.10;99.90;;;;;;5048417;28;20239;-80
2021/04/12 13:18:21;;;;;;;0.30;0.30;;;6.00;99.90;;;;;;5048411;28;20218;-81
2021/04/12 13:21:09;;;;;;;0.30;0.30;;;5.90;99.90;;;;;;5057225;28;20233;-80
2021/04/12 13:23:53;;;;;;;0.90;0.90;;;5.80;99.90;;;;;;5065515;28;20236;-79
2021/04/12 13:26:33;;;;;;;0.33;0.33;;;5.90;99.90;;;;;;5066533;28;20200;-81
2021/04/12 13:29:14;;;;;;;0.20;0.20;;;6.00;99.90;;;;;;5052648;28;20780;-81
2021/04/12 13:31:59;;;;;;;0.40;0.40;;;6.40;99.90;;;;;;5052579;28;20748;-81
2021/04/12 13:34:38;;;;;;;0.20;0.20;;;6.70;99.90;;;;;;5049291;28;20248;-84
2021/04/12 13:37:25;;;;;;;0.20;0.20;;;7.00;99.90;;;;;;5065062;28;20305;-83
2021/04/12 13:40:33;;;;;;;1.50;1.10;;;7.10;99.90;;;;;;5069713;28;20209;-86
2021/04/12 13:43:11;;;;;;;0.30;0.30;;;6.80;99.90;;;;;;5071192;28;20286;-81
2021/04/12 13:45:46;;;;;;;1.30;0.60;;;7.00;99.90;;;;;;5068844;28;20226;-81
2021/04/12 13:48:25;;;;;;;0.43;0.43;;;7.40;99.90;;;;;;5051914;28;20224;-83
2021/04/12 13:51:08;;;;;;;0.40;0.40;;;7.50;99.90;;;;;;5067641;28;20208;-80
2021/04/12 13:53:53;;;;;;;0.50;0.50;;;7.60;99.90;;;;;;5050708;28;20894;-83
2021/04/12 13:56:37;;;;;;;0.20;0.20;;;7.50;99.90;;;;;;5048484;28;20254;-82
2021/04/12 13:59:14;;;;;;;0.40;0.40;;;7.60;99.90;;;;;;5066756;28;20275;-83
2021/04/12 14:01:50;;;;;;;0.43;0.43;;;7.80;99.90;;;;;;5067948;28;20212;-83
2021/04/12 14:04:34;;;;;;;1.70;0.40;;;7.80;99.90;;;;;;5066594;28;20224;-84
2021/04/12 14:07:28;;;;;;;0.33;0.33;;;7.90;99.90;;;;;;5048848;28;20231;-81
2021/04/12 14:10:27;;;;;;;0.63;0.63;;;8.10;99.90;;;;;;5010543;28;20217;-81
2021/04/12 14:13:12;;;;;;;3.53;0.77;;;8.00;99.90;;;;;;5064350;28;20285;-82
2021/04/12 14:15:48;;;;;;;1.60;1.13;;;7.90;99.90;;;;;;5066044;28;20290;-83
2021/04/12 14:18:25;;;;;;;3.50;0.73;;;7.90;99.90;;;;;;5066365;28;20295;-84
2021/04/12 14:20:52;;;;;;;0.20;0.20;;;7.40;99.90;;;;;;5049587;28;20226;-82
2021/04/12 14:23:28;;;;;;;2.67;0.37;;;6.90;99.90;;;;;;5033698;28;20232;-83
2021/04/12 14:26:20;;;;;;;0.40;0.40;;;6.80;99.90;;;;;;5070485;28;20181;-83
2021/04/12 14:28:49;;;;;;;0.33;0.33;;;7.10;99.90;;;;;;5051528;28;20236;-83
2021/04/12 14:31:33;;;;;;;0.20;0.20;;;7.60;99.90;;;;;;5051359;28;20228;-82
2021/04/12 14:34:05;;;;;;;0.50;0.50;;;7.60;99.90;;;;;;5066826;28;20221;-83
2021/04/12 14:36:35;;;;;;;0.30;0.30;;;7.90;99.90;;;;;;5045914;28;20334;-83